Time;durP1;ratioP1;P1;durP2;ratioP2;P2;SDS_P1;SDS_P2;PMS_P1;PMS_P2;Temp;Humidity;BMP_temperature;BMP_pressure;BME280_temperature;BME280_humidity;BME280_pressure;Samples;Min_cycle;Max_cycle;Signal;HPM_P1;HPM_P2
2023/09/07 00:00:52;;;;;;;5.25;2.42;;;18.90;99.90;;;;;;5011222;28;20121;-75
2023/09/07 00:03:18;;;;;;;5.25;2.30;;;18.90;99.90;;;;;;5012012;28;20064;-76
2023/09/07 00:05:45;;;;;;;4.05;2.33;;;18.80;99.90;;;;;;5008951;28;20054;-75
2023/09/07 00:08:10;;;;;;;3.92;1.98;;;18.70;99.90;;;;;;5011663;28;20025;-76
2023/09/07 00:10:36;;;;;;;3.85;2.08;;;18.80;99.90;;;;;;5012653;28;20030;-75
2023/09/07 00:13:03;;;;;;;6.40;2.50;;;18.80;99.90;;;;;;5009106;28;20065;-75
2023/09/07 00:15:29;;;;;;;3.88;2.25;;;18.80;99.90;;;;;;5010927;28;20042;-76
2023/09/07 00:17:56;;;;;;;4.22;2.38;;;18.80;99.90;;;;;;5011780;28;20030;-75
2023/09/07 00:20:23;;;;;;;5.50;1.83;;;18.80;99.90;;;;;;5010667;28;20034;-76
2023/09/07 00:22:49;;;;;;;5.90;2.15;;;18.90;99.90;;;;;;5012045;28;20057;-75
2023/09/07 00:25:15;;;;;;;4.90;2.58;;;18.80;99.90;;;;;;5012968;28;20060;-75
2023/09/07 00:27:40;;;;;;;3.92;2.25;;;18.80;99.90;;;;;;5011876;28;20038;-75
2023/09/07 00:30:09;;;;;;;5.32;1.90;;;18.80;99.90;;;;;;5012015;28;20056;-76
2023/09/07 00:32:37;;;;;;;4.10;2.08;;;18.80;99.90;;;;;;5010527;28;20219;-75
2023/09/07 00:35:03;;;;;;;3.97;1.73;;;18.70;99.90;;;;;;5011033;28;20026;-76
2023/09/07 00:37:29;;;;;;;5.40;2.47;;;18.60;99.90;;;;;;5011198;28;20018;-75
2023/09/07 00:39:54;;;;;;;4.43;2.47;;;18.60;99.90;;;;;;5012406;28;20028;-75
2023/09/07 00:42:20;;;;;;;5.20;2.45;;;18.50;99.90;;;;;;5011152;28;20114;-75
2023/09/07 00:44:47;;;;;;;3.78;2.20;;;18.50;99.90;;;;;;5014580;28;20034;-76
2023/09/07 00:47:14;;;;;;;4.32;2.47;;;18.50;99.90;;;;;;5014875;28;20041;-75
2023/09/07 00:49:40;;;;;;;4.53;1.95;;;18.50;99.90;;;;;;5015309;28;20076;-75
2023/09/07 00:52:07;;;;;;;3.30;1.63;;;18.50;99.90;;;;;;5013407;28;20034;-75
2023/09/07 00:54:34;;;;;;;4.63;2.47;;;18.60;99.90;;;;;;5015925;28;20042;-76
2023/09/07 00:57:00;;;;;;;5.30;2.33;;;18.60;99.90;;;;;;5014791;28;20033;-77
2023/09/07 00:59:25;;;;;;;5.45;2.20;;;18.70;99.90;;;;;;5015123;28;20041;-75
2023/09/07 01:01:51;;;;;;;3.88;1.65;;;18.80;99.90;;;;;;5016233;28;20026;-76
2023/09/07 01:04:17;;;;;;;5.07;2.00;;;18.80;99.90;;;;;;5014803;28;20042;-76
2023/09/07 01:06:49;;;;;;;3.65;2.00;;;18.90;99.90;;;;;;5014230;28;20537;-75
2023/09/07 01:09:19;;;;;;;4.63;2.30;;;19.00;99.90;;;;;;5015275;28;20030;-76
2023/09/07 01:11:45;;;;;;;4.32;2.30;;;19.10;99.90;;;;;;5014671;28;20058;-75
2023/09/07 01:14:10;;;;;;;4.65;2.35;;;19.10;99.90;;;;;;5014817;28;20080;-76
2023/09/07 01:16:38;;;;;;;4.10;2.17;;;19.00;99.90;;;;;;5014567;28;20030;-75
2023/09/07 01:19:06;;;;;;;5.72;2.42;;;18.80;99.90;;;;;;5013172;28;20065;-76
2023/09/07 01:21:36;;;;;;;4.53;2.63;;;18.70;99.90;;;;;;5015226;28;20030;-75
2023/09/07 01:24:08;;;;;;;5.20;2.33;;;18.80;99.90;;;;;;5014517;28;20121;-75
2023/09/07 01:26:38;;;;;;;5.80;2.22;;;18.80;99.90;;;;;;5012677;28;20030;-75
2023/09/07 01:29:05;;;;;;;4.35;2.40;;;18.90;99.90;;;;;;5014853;28;20025;-75
2023/09/07 01:31:30;;;;;;;4.32;2.42;;;18.90;99.90;;;;;;5014242;28;20041;-75
2023/09/07 01:33:56;;;;;;;6.32;2.50;;;18.90;99.90;;;;;;5015246;28;20041;-76
2023/09/07 01:36:22;;;;;;;7.25;2.30;;;18.90;99.90;;;;;;5013833;28;20036;-76
2023/09/07 01:38:47;;;;;;;7.10;2.10;;;19.00;99.90;;;;;;5015104;28;20488;-75
2023/09/07 01:41:13;;;;;;;4.60;2.20;;;19.00;99.90;;;;;;5014909;28;20034;-75
2023/09/07 01:43:38;;;;;;;4.13;1.98;;;19.00;99.90;;;;;;5013402;28;20038;-76
2023/09/07 01:46:04;;;;;;;3.58;2.25;;;19.10;99.90;;;;;;5013257;28;20079;-75
2023/09/07 01:48:30;;;;;;;4.63;2.55;;;19.10;99.90;;;;;;4997141;28;20034;-76
2023/09/07 01:50:55;;;;;;;4.30;2.25;;;19.10;99.90;;;;;;5008315;28;20468;-75
2023/09/07 01:53:21;;;;;;;5.72;2.22;;;19.00;99.90;;;;;;5015006;28;20030;-75
2023/09/07 01:55:47;;;;;;;4.00;2.20;;;19.10;99.90;;;;;;5014114;28;20037;-75
2023/09/07 01:58:13;;;;;;;5.60;2.33;;;19.00;99.90;;;;;;5014014;28;20044;-75
2023/09/07 02:00:40;;;;;;;3.58;1.92;;;19.00;99.90;;;;;;5014163;28;20407;-75
2023/09/07 02:03:06;;;;;;;4.07;2.28;;;18.90;99.90;;;;;;5014482;28;20109;-76
2023/09/07 02:05:32;;;;;;;4.28;2.33;;;18.90;99.90;;;;;;5013460;28;20140;-75
2023/09/07 02:07:58;;;;;;;4.53;1.90;;;18.90;99.90;;;;;;5014019;28;20025;-75
2023/09/07 02:10:24;;;;;;;4.00;2.20;;;18.80;99.90;;;;;;5013941;28;20025;-75
2023/09/07 02:12:50;;;;;;;4.30;2.20;;;18.70;99.90;;;;;;5012511;28;20446;-75
2023/09/07 02:15:15;;;;;;;12.25;2.15;;;18.70;99.90;;;;;;5013364;28;20125;-76
2023/09/07 02:17:44;;;;;;;3.85;2.10;;;18.60;99.90;;;;;;5012845;28;20092;-75
2023/09/07 02:20:11;;;;;;;7.95;2.30;;;18.60;99.90;;;;;;5013194;28;20030;-75
2023/09/07 02:22:37;;;;;;;4.45;2.40;;;18.60;99.90;;;;;;5008818;28;20381;-76
2023/09/07 02:25:05;;;;;;;4.80;2.30;;;18.70;99.90;;;;;;4994856;28;20089;-76
2023/09/07 02:27:35;;;;;;;8.63;2.65;;;18.70;99.90;;;;;;5009881;28;20040;-75
2023/09/07 02:30:02;;;;;;;5.60;1.92;;;18.70;99.90;;;;;;5013899;28;20056;-75
2023/09/07 02:32:27;;;;;;;4.35;2.20;;;18.60;99.90;;;;;;5011758;28;20468;-75
2023/09/07 02:34:53;;;;;;;5.38;2.00;;;18.40;99.90;;;;;;5013225;28;20080;-76
2023/09/07 02:37:19;;;;;;;6.53;2.70;;;18.40;99.90;;;;;;5013928;28;20121;-75
2023/09/07 02:39:44;;;;;;;6.53;2.53;;;18.30;99.90;;;;;;5014146;28;20466;-76
2023/09/07 02:42:10;;;;;;;3.95;2.20;;;18.20;99.90;;;;;;5013715;28;20535;-75
2023/09/07 02:44:36;;;;;;;6.88;2.15;;;18.30;99.90;;;;;;5013556;28;20041;-75
2023/09/07 02:47:02;;;;;;;3.83;1.90;;;18.20;99.90;;;;;;5013341;28;20037;-75
2023/09/07 02:49:27;;;;;;;3.65;2.05;;;18.00;99.90;;;;;;5013801;28;20037;-76
2023/09/07 02:51:53;;;;;;;4.50;2.22;;;17.90;99.90;;;;;;5012766;28;20030;-75
2023/09/07 02:54:19;;;;;;;6.43;2.40;;;17.90;99.90;;;;;;5013782;28;20041;-75
2023/09/07 02:56:45;;;;;;;4.10;2.40;;;17.80;99.90;;;;;;5013048;28;20017;-75
2023/09/07 02:59:10;;;;;;;6.60;2.20;;;17.90;99.90;;;;;;5013318;28;20502;-75
2023/09/07 03:01:39;;;;;;;5.85;2.38;;;17.90;99.90;;;;;;5012821;28;20038;-75
2023/09/07 03:04:05;;;;;;;6.10;2.42;;;17.90;99.90;;;;;;4996493;28;20030;-75
2023/09/07 03:06:31;;;;;;;8.15;2.55;;;17.90;99.90;;;;;;5004811;28;20045;-75
2023/09/07 03:08:57;;;;;;;4.97;2.45;;;17.80;99.90;;;;;;5007253;28;20037;-75
2023/09/07 03:11:23;;;;;;;5.43;2.30;;;17.70;99.90;;;;;;5007014;28;20384;-75
2023/09/07 03:13:49;;;;;;;5.13;2.63;;;17.70;99.90;;;;;;5007694;28;20030;-75
2023/09/07 03:16:14;;;;;;;5.28;2.20;;;17.70;99.90;;;;;;5006811;28;20038;-75
2023/09/07 03:18:40;;;;;;;4.20;1.98;;;17.70;99.90;;;;;;4995517;28;20662;-75
2023/09/07 03:21:06;;;;;;;4.45;2.10;;;17.70;99.90;;;;;;5004767;28;20464;-75
2023/09/07 03:23:33;;;;;;;5.38;2.13;;;17.80;99.90;;;;;;4999949;28;20504;-75
2023/09/07 03:25:59;;;;;;;3.90;2.40;;;17.90;99.90;;;;;;5008182;28;20018;-75
2023/09/07 03:28:25;;;;;;;4.18;2.20;;;18.00;99.90;;;;;;5007515;28;20026;-75
2023/09/07 03:30:52;;;;;;;4.32;2.58;;;18.10;99.90;;;;;;5008849;28;20045;-75
2023/09/07 03:33:18;;;;;;;5.25;2.33;;;18.30;99.90;;;;;;5006585;28;20055;-75
2023/09/07 03:35:43;;;;;;;5.10;2.03;;;18.30;99.90;;;;;;5008874;28;20030;-75
2023/09/07 03:38:09;;;;;;;4.63;2.38;;;18.30;99.90;;;;;;5007823;28;20118;-75
2023/09/07 03:40:35;;;;;;;4.97;2.30;;;18.20;99.90;;;;;;5008113;28;20084;-75
2023/09/07 03:43:00;;;;;;;4.03;2.35;;;18.10;99.90;;;;;;5007801;28;20033;-75
2023/09/07 03:45:26;;;;;;;4.20;2.45;;;18.20;99.90;;;;;;5008803;28;20108;-75
2023/09/07 03:47:52;;;;;;;3.45;1.95;;;18.20;99.90;;;;;;5007239;28;20088;-75
2023/09/07 03:50:17;;;;;;;5.95;2.70;;;18.10;99.90;;;;;;5007050;28;20978;-75
2023/09/07 03:52:43;;;;;;;5.57;2.63;;;18.10;99.90;;;;;;5008045;28;20526;-75
2023/09/07 03:55:09;;;;;;;3.60;1.83;;;18.00;99.90;;;;;;5008171;28;20026;-75
2023/09/07 03:57:34;;;;;;;6.00;2.55;;;17.80;99.90;;;;;;5007375;28;20026;-75
2023/09/07 04:00:00;;;;;;;5.00;2.25;;;17.80;99.90;;;;;;5002907;28;20022;-75
2023/09/07 04:02:26;;;;;;;6.28;3.17;;;17.60;99.90;;;;;;4998944;28;20034;-75
2023/09/07 04:04:53;;;;;;;6.18;2.88;;;17.60;99.90;;;;;;5006854;28;20104;-75
2023/09/07 04:07:19;;;;;;;4.28;2.08;;;17.60;99.90;;;;;;5007630;28;20048;-75
2023/09/07 04:09:45;;;;;;;4.45;2.22;;;17.50;99.90;;;;;;5005320;28;20599;-75
2023/09/07 04:12:12;;;;;;;5.03;1.98;;;17.60;99.90;;;;;;5007208;28;20527;-75
2023/09/07 04:14:38;;;;;;;4.15;2.33;;;17.40;99.90;;;;;;5007080;28;20087;-75
2023/09/07 04:17:04;;;;;;;4.50;2.45;;;17.50;99.90;;;;;;5007245;28;20546;-75
2023/09/07 04:19:30;;;;;;;4.30;2.50;;;17.60;99.90;;;;;;5006754;28;20026;-75
2023/09/07 04:21:57;;;;;;;4.85;2.15;;;17.60;99.90;;;;;;5010891;28;20409;-75
2023/09/07 04:24:23;;;;;;;5.43;2.30;;;17.40;99.90;;;;;;5010179;28;20068;-75
2023/09/07 04:26:49;;;;;;;4.40;2.20;;;17.30;99.90;;;;;;5000265;28;20538;-75
2023/09/07 04:29:15;;;;;;;4.75;2.20;;;17.20;99.90;;;;;;5005194;28;20053;-75
2023/09/07 04:31:41;;;;;;;7.32;2.78;;;17.10;99.90;;;;;;5009718;28;20076;-76
2023/09/07 04:34:07;;;;;;;6.78;2.47;;;16.90;99.90;;;;;;5009841;28;20041;-76
2023/09/07 04:36:33;;;;;;;6.88;2.88;;;17.00;99.90;;;;;;5010132;28;20018;-75
2023/09/07 04:38:59;;;;;;;3.70;1.95;;;17.00;99.90;;;;;;5009424;28;20034;-75
2023/09/07 04:41:24;;;;;;;4.65;2.30;;;17.00;99.90;;;;;;5008654;28;20041;-75
2023/09/07 04:43:50;;;;;;;4.32;2.03;;;17.20;99.90;;;;;;5010023;28;20029;-75
2023/09/07 04:46:16;;;;;;;6.30;2.70;;;17.40;99.90;;;;;;5010462;28;20038;-75
2023/09/07 04:48:43;;;;;;;11.18;2.53;;;17.70;99.90;;;;;;5009704;28;20040;-75
2023/09/07 04:51:09;;;;;;;4.65;2.30;;;17.70;99.90;;;;;;5008991;28;20022;-75
2023/09/07 04:53:37;;;;;;;4.15;2.28;;;17.60;99.90;;;;;;5009246;28;20034;-75
2023/09/07 04:56:03;;;;;;;4.65;2.35;;;17.20;99.90;;;;;;5010416;28;20025;-75
2023/09/07 04:58:29;;;;;;;3.58;1.88;;;17.20;99.90;;;;;;5009406;28;20583;-76
2023/09/07 05:01:02;;;;;;;4.68;2.45;;;17.20;99.90;;;;;;5008763;28;20109;-76
2023/09/07 05:03:28;;;;;;;5.25;2.13;;;17.20;99.90;;;;;;5006544;28;20041;-75
2023/09/07 05:05:53;;;;;;;4.28;2.33;;;17.20;99.90;;;;;;4960354;28;1342746;-75
2023/09/07 05:08:20;;;;;;;4.85;2.88;;;17.50;99.90;;;;;;5008429;28;20108;-76
2023/09/07 05:10:45;;;;;;;5.20;2.45;;;17.70;99.90;;;;;;5011219;28;20026;-75
2023/09/07 05:13:11;;;;;;;4.15;2.63;;;17.80;99.90;;;;;;5007874;28;20045;-75
2023/09/07 05:15:37;;;;;;;6.22;2.35;;;17.90;99.90;;;;;;5011038;28;20420;-76
2023/09/07 05:18:02;;;;;;;5.25;2.10;;;17.80;99.90;;;;;;5011173;28;20030;-76
2023/09/07 05:20:30;;;;;;;4.03;2.42;;;17.70;99.90;;;;;;5011249;28;20030;-75
2023/09/07 05:22:56;;;;;;;3.88;2.40;;;17.70;99.90;;;;;;5009858;28;20065;-76
2023/09/07 05:25:22;;;;;;;4.68;2.67;;;17.60;99.90;;;;;;5010613;28;20050;-75
2023/09/07 05:27:49;;;;;;;4.00;2.45;;;17.60;99.90;;;;;;4992961;28;20034;-75
2023/09/07 05:30:14;;;;;;;5.40;2.53;;;17.70;99.90;;;;;;5010885;28;20026;-75
2023/09/07 05:32:41;;;;;;;5.78;3.00;;;17.80;99.90;;;;;;4998448;28;20044;-78
2023/09/07 05:35:07;;;;;;;6.13;2.83;;;17.70;99.90;;;;;;5006136;28;20029;-76
2023/09/07 05:37:33;;;;;;;13.23;3.42;;;17.60;99.90;;;;;;5010067;28;20095;-77
2023/09/07 05:39:58;;;;;;;7.07;2.75;;;17.50;99.90;;;;;;5010417;28;20033;-76
2023/09/07 05:42:25;;;;;;;5.88;3.45;;;17.40;99.90;;;;;;5007802;28;20104;-77
2023/09/07 05:44:51;;;;;;;4.65;2.50;;;17.30;99.90;;;;;;5010339;28;20482;-76
2023/09/07 05:47:17;;;;;;;4.15;1.98;;;17.30;99.90;;;;;;5010578;28;20134;-76
2023/09/07 05:49:43;;;;;;;6.03;2.80;;;17.20;99.90;;;;;;5010481;28;20037;-77
2023/09/07 05:52:09;;;;;;;4.78;2.58;;;17.20;99.90;;;;;;5010426;28;20132;-76
2023/09/07 05:54:34;;;;;;;4.70;2.75;;;17.30;99.90;;;;;;5008271;28;20022;-77
2023/09/07 05:57:00;;;;;;;6.10;2.45;;;17.40;99.90;;;;;;5007185;28;20045;-76
2023/09/07 05:59:26;;;;;;;4.68;2.30;;;17.40;99.90;;;;;;5007653;28;20033;-77
2023/09/07 06:01:51;;;;;;;5.38;3.00;;;17.50;99.90;;;;;;5007768;28;20030;-76
2023/09/07 06:04:17;;;;;;;5.85;2.78;;;17.50;99.90;;;;;;5007845;28;20061;-76
2023/09/07 06:06:43;;;;;;;5.45;2.60;;;17.40;99.90;;;;;;5007414;28;20026;-77
2023/09/07 06:09:08;;;;;;;4.82;2.75;;;17.50;99.90;;;;;;5007574;28;20109;-77
2023/09/07 06:11:34;;;;;;;5.85;2.70;;;17.50;99.90;;;;;;5005795;28;20032;-76
2023/09/07 06:14:00;;;;;;;5.47;3.17;;;17.40;99.90;;;;;;5004583;28;20034;-76
2023/09/07 06:16:26;;;;;;;5.60;2.58;;;17.40;99.90;;;;;;5001277;28;20032;-76
2023/09/07 06:18:51;;;;;;;5.15;2.83;;;17.40;99.90;;;;;;4987389;28;20034;-76
2023/09/07 06:21:17;;;;;;;7.57;3.05;;;17.30;99.90;;;;;;5007816;28;20029;-76
2023/09/07 06:23:43;;;;;;;5.10;3.20;;;17.30;99.90;;;;;;5007703;28;20038;-76
2023/09/07 06:26:09;;;;;;;5.68;2.95;;;17.40;99.90;;;;;;5007462;28;20045;-76
2023/09/07 06:28:34;;;;;;;5.63;3.40;;;17.40;99.90;;;;;;5006742;28;20034;-77
2023/09/07 06:31:00;;;;;;;4.20;2.33;;;17.50;99.90;;;;;;5006659;28;20034;-76
2023/09/07 06:33:26;;;;;;;5.50;3.15;;;17.50;99.90;;;;;;5006349;28;20092;-77
2023/09/07 06:35:51;;;;;;;8.40;3.00;;;17.50;99.90;;;;;;5006994;28;20030;-76
2023/09/07 06:38:17;;;;;;;5.93;3.30;;;17.50;99.90;;;;;;5007224;28;20022;-76
2023/09/07 06:40:48;;;;;;;11.38;3.20;;;17.50;99.90;;;;;;5006948;28;20503;-77
2023/09/07 06:43:14;;;;;;;7.88;3.50;;;17.50;99.90;;;;;;5006556;28;21039;-77
2023/09/07 06:45:40;;;;;;;6.18;3.17;;;17.50;99.90;;;;;;5006979;28;20038;-76
2023/09/07 06:48:06;;;;;;;6.13;3.10;;;17.50;99.90;;;;;;5006585;28;20034;-76
2023/09/07 06:50:31;;;;;;;5.05;2.80;;;17.60;99.90;;;;;;5004767;28;20033;-77
2023/09/07 06:52:57;;;;;;;6.03;3.20;;;17.70;99.90;;;;;;5006605;28;20465;-77
2023/09/07 06:55:23;;;;;;;5.05;3.08;;;18.00;99.90;;;;;;5006848;28;20117;-76
2023/09/07 06:57:49;;;;;;;6.63;3.42;;;18.80;99.90;;;;;;5005679;28;20424;-77
2023/09/07 07:00:15;;;;;;;10.07;3.70;;;20.80;99.90;;;;;;5006787;28;20025;-77
2023/09/07 07:02:40;;;;;;;5.68;3.00;;;22.40;99.90;;;;;;4998274;28;20126;-77
2023/09/07 07:05:06;;;;;;;5.93;3.08;;;24.60;97.70;;;;;;5005683;28;20125;-76
2023/09/07 07:07:34;;;;;;;5.38;3.25;;;25.80;96.00;;;;;;5010302;28;20029;-74
2023/09/07 07:10:00;;;;;;;7.85;3.60;;;26.30;95.20;;;;;;5009136;28;20121;-75
2023/09/07 07:12:26;;;;;;;5.95;3.83;;;26.40;95.10;;;;;;5006559;28;20037;-76
2023/09/07 07:14:52;;;;;;;7.85;3.53;;;26.60;94.30;;;;;;5001345;28;20431;-74
2023/09/07 07:17:17;;;;;;;6.18;3.10;;;27.00;94.20;;;;;;5005268;28;20022;-74
2023/09/07 07:19:43;;;;;;;6.53;3.50;;;25.70;94.40;;;;;;5006061;28;20030;-76
2023/09/07 07:22:09;;;;;;;5.20;2.90;;;23.00;97.80;;;;;;5004096;28;20088;-76
2023/09/07 07:24:34;;;;;;;5.38;3.08;;;21.30;99.90;;;;;;4991658;28;20517;-76
2023/09/07 07:27:00;;;;;;;6.35;3.40;;;20.30;99.90;;;;;;5003708;28;20099;-76
2023/09/07 07:29:26;;;;;;;4.70;3.20;;;19.70;99.90;;;;;;5005306;28;20029;-75
2023/09/07 07:31:52;;;;;;;5.85;2.70;;;19.10;99.90;;;;;;5005372;28;20052;-76
2023/09/07 07:34:18;;;;;;;6.07;3.13;;;19.30;99.90;;;;;;4997138;28;20129;-75
2023/09/07 07:36:43;;;;;;;6.28;3.53;;;19.20;99.90;;;;;;4998669;28;20040;-76
2023/09/07 07:39:09;;;;;;;8.57;3.70;;;19.10;99.90;;;;;;4995715;28;20468;-76
2023/09/07 07:41:35;;;;;;;7.60;3.35;;;19.10;99.90;;;;;;5004987;28;20033;-77
2023/09/07 07:44:01;;;;;;;8.38;3.88;;;19.20;99.90;;;;;;5005857;28;20032;-77
2023/09/07 07:46:27;;;;;;;6.25;3.80;;;19.20;99.90;;;;;;5004847;28;20570;-77
2023/09/07 07:48:53;;;;;;;8.60;4.10;;;19.30;99.90;;;;;;5003637;28;20030;-77
2023/09/07 07:51:18;;;;;;;7.18;3.83;;;19.30;99.90;;;;;;4986946;28;20035;-76
2023/09/07 07:53:44;;;;;;;7.22;3.92;;;19.50;99.90;;;;;;4999179;28;20034;-76
2023/09/07 07:56:17;;;;;;;7.45;4.30;;;19.50;99.90;;;;;;4999902;28;20457;-76
2023/09/07 07:58:44;;;;;;;5.80;3.63;;;19.50;99.90;;;;;;5004947;28;20033;-76
2023/09/07 08:01:20;;;;;;;6.60;4.05;;;19.50;99.90;;;;;;5005065;28;20244;-76
2023/09/07 08:03:46;;;;;;;6.28;4.00;;;19.60;99.90;;;;;;5004219;28;20030;-76
2023/09/07 08:06:11;;;;;;;6.35;4.00;;;19.60;99.90;;;;;;5004477;28;20045;-77
2023/09/07 08:08:39;;;;;;;8.77;3.60;;;19.60;99.90;;;;;;5004337;28;20049;-76
2023/09/07 08:11:05;;;;;;;7.35;4.25;;;19.70;99.90;;;;;;5005266;28;20068;-76
2023/09/07 08:13:34;;;;;;;6.75;3.58;;;19.70;99.90;;;;;;5004315;28;20033;-75
2023/09/07 08:16:04;;;;;;;6.28;3.78;;;19.90;99.90;;;;;;5005093;28;20457;-75
2023/09/07 08:18:32;;;;;;;6.55;3.88;;;19.90;99.90;;;;;;5003387;28;20037;-76
2023/09/07 08:20:58;;;;;;;7.25;4.20;;;20.00;99.90;;;;;;4996704;28;20022;-76
2023/09/07 08:23:23;;;;;;;7.20;4.38;;;20.00;99.90;;;;;;5002748;28;20034;-77
2023/09/07 08:25:52;;;;;;;7.80;4.18;;;20.10;99.90;;;;;;5000155;28;20091;-76
2023/09/07 08:28:18;;;;;;;7.57;3.90;;;20.20;99.90;;;;;;5002011;28;20426;-77
2023/09/07 08:30:44;;;;;;;6.15;4.20;;;20.40;99.90;;;;;;5002879;28;20041;-77
2023/09/07 08:33:10;;;;;;;7.88;4.00;;;20.40;99.90;;;;;;5002332;28;20731;-76
2023/09/07 08:35:37;;;;;;;6.82;3.80;;;20.50;99.90;;;;;;5003720;28;20030;-76
2023/09/07 08:38:08;;;;;;;5.93;4.30;;;20.50;99.90;;;;;;5005035;28;20037;-76
2023/09/07 08:40:35;;;;;;;7.60;4.22;;;20.50;99.90;;;;;;5007435;28;20022;-77
2023/09/07 08:43:04;;;;;;;8.25;4.68;;;20.50;99.90;;;;;;5007930;28;20022;-76
2023/09/07 08:45:33;;;;;;;6.07;3.97;;;20.50;99.90;;;;;;5007742;28;20499;-76
2023/09/07 08:47:59;;;;;;;10.15;4.63;;;20.60;99.90;;;;;;5007325;28;20038;-76
2023/09/07 08:50:26;;;;;;;6.38;4.18;;;20.70;99.90;;;;;;5006915;28;20038;-76
2023/09/07 08:52:53;;;;;;;7.57;4.35;;;20.70;99.90;;;;;;5007772;28;20037;-76
2023/09/07 08:55:19;;;;;;;5.93;3.80;;;20.70;99.90;;;;;;5005841;28;20030;-76
2023/09/07 08:57:45;;;;;;;6.32;4.07;;;23.30;99.90;;;;;;5004608;28;20034;-76
2023/09/07 09:00:16;;;;;;;6.28;3.47;;;26.10;98.60;;;;;;5003438;28;20033;-76
2023/09/07 09:02:42;;;;;;;7.07;3.97;;;27.30;96.30;;;;;;5002631;28;20037;-76
2023/09/07 09:05:14;;;;;;;5.88;3.83;;;27.90;96.30;;;;;;5005373;28;20536;-76
2023/09/07 09:07:40;;;;;;;12.52;4.85;;;28.80;95.70;;;;;;5007865;28;20460;-77
2023/09/07 09:10:07;;;;;;;7.78;4.35;;;28.00;95.20;;;;;;5008121;28;20030;-76
2023/09/07 09:12:33;;;;;;;10.77;5.05;;;28.90;94.90;;;;;;5007317;28;20073;-76
2023/09/07 09:15:01;;;;;;;9.18;4.88;;;29.00;94.90;;;;;;5003390;28;20068;-76
2023/09/07 09:17:27;;;;;;;7.32;4.40;;;28.90;94.70;;;;;;5007094;28;20033;-76
2023/09/07 09:19:52;;;;;;;8.40;4.70;;;27.60;94.80;;;;;;5003979;28;20061;-75
2023/09/07 09:22:19;;;;;;;7.22;4.65;;;28.30;95.00;;;;;;5006527;28;20936;-76
2023/09/07 09:24:48;;;;;;;8.35;4.47;;;28.80;94.40;;;;;;5006208;28;20038;-76
2023/09/07 09:27:13;;;;;;;6.68;4.35;;;28.80;94.30;;;;;;5010182;28;20633;-76
2023/09/07 09:29:40;;;;;;;8.50;5.28;;;28.90;94.30;;;;;;5010543;28;20104;-77
2023/09/07 09:32:07;;;;;;;9.23;4.85;;;29.10;94.60;;;;;;5011222;28;20129;-76
2023/09/07 09:34:35;;;;;;;8.30;5.70;;;29.10;94.40;;;;;;5011014;28;20025;-76
2023/09/07 09:37:02;;;;;;;6.38;4.40;;;28.80;94.40;;;;;;5010196;28;20041;-76
2023/09/07 09:39:27;;;;;;;7.57;4.55;;;28.40;94.50;;;;;;5009490;28;20026;-77
2023/09/07 09:41:54;;;;;;;10.63;5.07;;;27.40;95.20;;;;;;5010044;28;20530;-76
2023/09/07 09:44:25;;;;;;;8.40;5.35;;;26.00;96.00;;;;;;5010752;28;20034;-77
2023/09/07 09:46:52;;;;;;;8.68;5.00;;;24.80;97.50;;;;;;5010695;28;20041;-77
2023/09/07 09:49:21;;;;;;;7.60;4.82;;;24.40;98.40;;;;;;4985891;28;20092;-76
2023/09/07 09:51:51;;;;;;;7.30;5.35;;;24.20;98.20;;;;;;4988012;28;20138;-76
2023/09/07 09:54:18;;;;;;;8.10;4.50;;;23.70;98.80;;;;;;4990811;28;20708;-77
2023/09/07 09:56:44;;;;;;;9.27;4.18;;;24.00;99.30;;;;;;5003521;28;20038;-77
2023/09/07 09:59:11;;;;;;;6.20;4.22;;;24.00;98.80;;;;;;5009380;28;20645;-76
2023/09/07 10:01:46;;;;;;;5.47;3.78;;;24.00;99.70;;;;;;5009429;28;20022;-76
2023/09/07 10:04:17;;;;;;;6.68;4.20;;;24.00;98.80;;;;;;5009514;28;20030;-77
2023/09/07 10:06:58;;;;;;;10.85;4.63;;;24.00;99.70;;;;;;4990226;28;20038;-76
2023/09/07 10:09:23;;;;;;;7.30;4.28;;;24.20;99.00;;;;;;4990238;28;20034;-76
2023/09/07 10:11:53;;;;;;;8.70;4.85;;;24.20;98.10;;;;;;4998152;28;20034;-77
2023/09/07 10:14:19;;;;;;;5.40;3.80;;;24.20;99.30;;;;;;5010203;28;20387;-77
2023/09/07 10:16:47;;;;;;;7.63;4.85;;;24.30;98.50;;;;;;5008194;28;20029;-77
2023/09/07 10:19:24;;;;;;;5.68;3.97;;;24.20;98.40;;;;;;5008999;28;20391;-77
2023/09/07 10:21:52;;;;;;;7.60;4.57;;;24.50;98.50;;;;;;5009725;28;20498;-77
2023/09/07 10:24:29;;;;;;;5.78;4.07;;;24.50;98.50;;;;;;5010151;28;20030;-76
2023/09/07 10:27:09;;;;;;;7.10;4.55;;;24.40;98.20;;;;;;5005024;28;20121;-76
2023/09/07 10:29:45;;;;;;;7.72;4.65;;;24.30;98.00;;;;;;5008974;28;20033;-77
2023/09/07 10:32:12;;;;;;;8.57;4.43;;;24.40;98.30;;;;;;5009459;28;20026;-76
2023/09/07 10:34:43;;;;;;;9.85;4.85;;;24.80;98.20;;;;;;5009485;28;20121;-77
2023/09/07 10:37:12;;;;;;;6.78;3.83;;;24.80;97.90;;;;;;5009441;28;20400;-77
2023/09/07 10:39:39;;;;;;;6.00;4.00;;;25.00;97.70;;;;;;5009225;28;20030;-77
2023/09/07 10:42:05;;;;;;;5.97;3.95;;;25.10;97.20;;;;;;4991979;28;20426;-76
2023/09/07 10:44:31;;;;;;;17.55;4.25;;;24.80;97.30;;;;;;5008636;28;20034;-78
2023/09/07 10:46:57;;;;;;;7.97;4.20;;;24.70;97.50;;;;;;5007959;28;20072;-76
2023/09/07 10:49:24;;;;;;;8.45;3.72;;;24.80;97.20;;;;;;5002885;28;20026;-76
2023/09/07 10:51:49;;;;;;;5.78;4.03;;;25.20;98.40;;;;;;4989513;28;20030;-76
2023/09/07 10:54:22;;;;;;;5.30;3.70;;;25.40;97.80;;;;;;4989730;28;20037;-76
2023/09/07 10:56:49;;;;;;;5.37;3.83;;;25.50;97.60;;;;;;5002621;28;20061;-76
2023/09/07 10:59:16;;;;;;;6.75;4.47;;;25.50;96.80;;;;;;4990632;28;20369;-75
2023/09/07 11:01:44;;;;;;;7.40;3.45;;;25.40;96.90;;;;;;5009557;28;20172;-76
2023/09/07 11:04:13;;;;;;;5.55;3.67;;;25.60;97.10;;;;;;5008900;28;20075;-76
2023/09/07 11:06:40;;;;;;;6.10;3.53;;;25.90;97.30;;;;;;5009221;28;20038;-76
2023/09/07 11:09:08;;;;;;;6.85;4.05;;;26.00;96.40;;;;;;5009674;28;20029;-76
2023/09/07 11:11:36;;;;;;;10.93;4.15;;;26.20;96.20;;;;;;5009044;28;20045;-76
2023/09/07 11:14:03;;;;;;;5.68;3.67;;;26.40;96.20;;;;;;5008577;28;20072;-76
2023/09/07 11:16:30;;;;;;;7.25;3.80;;;26.30;96.30;;;;;;5008671;28;20026;-76
2023/09/07 11:18:55;;;;;;;7.65;4.40;;;26.30;96.90;;;;;;5008064;28;20037;-76
2023/09/07 11:21:22;;;;;;;6.72;4.00;;;26.30;97.00;;;;;;5008058;28;20022;-76
2023/09/07 11:23:49;;;;;;;5.82;4.03;;;26.40;96.60;;;;;;5007804;28;20026;-75
2023/09/07 11:26:17;;;;;;;5.68;3.60;;;26.30;96.90;;;;;;5005887;28;20606;-76
2023/09/07 11:28:45;;;;;;;9.88;3.63;;;26.40;97.20;;;;;;4989508;28;20030;-76
2023/09/07 11:31:11;;;;;;;4.80;3.42;;;26.50;97.20;;;;;;5007673;28;20041;-75
2023/09/07 11:33:36;;;;;;;7.85;4.05;;;26.40;97.40;;;;;;5008245;28;20034;-75
2023/09/07 11:36:03;;;;;;;7.57;4.13;;;26.40;96.50;;;;;;5007999;28;20629;-76
2023/09/07 11:38:36;;;;;;;7.50;3.80;;;26.60;96.90;;;;;;5007157;28;20488;-76
2023/09/07 11:41:01;;;;;;;8.33;3.73;;;26.60;96.70;;;;;;5006839;28;20025;-76
2023/09/07 11:43:27;;;;;;;6.93;3.78;;;26.60;96.50;;;;;;5007698;28;20352;-78
2023/09/07 11:45:53;;;;;;;4.90;3.30;;;26.70;97.00;;;;;;4992816;28;20105;-77
2023/09/07 11:48:18;;;;;;;7.68;3.92;;;26.70;97.10;;;;;;5004966;28;20037;-76
2023/09/07 11:50:44;;;;;;;5.68;3.13;;;27.00;96.10;;;;;;4991040;28;20045;-77
2023/09/07 11:53:10;;;;;;;5.45;3.15;;;27.10;96.00;;;;;;5004649;28;20096;-77
2023/09/07 11:55:37;;;;;;;4.93;3.47;;;27.20;96.10;;;;;;5002436;28;20093;-76
2023/09/07 11:58:04;;;;;;;6.65;3.35;;;27.20;96.30;;;;;;5003304;28;20061;-77
2023/09/07 12:00:31;;;;;;;4.05;2.65;;;27.40;96.00;;;;;;5004273;28;20033;-76
2023/09/07 12:02:57;;;;;;;5.97;2.83;;;27.40;95.10;;;;;;5004406;28;20049;-77
2023/09/07 12:05:23;;;;;;;5.30;2.45;;;27.50;94.50;;;;;;5003837;28;20116;-77
2023/09/07 12:07:48;;;;;;;4.82;2.92;;;27.50;94.70;;;;;;5004556;28;20030;-76
2023/09/07 12:10:14;;;;;;;14.68;2.97;;;27.60;94.40;;;;;;5003786;28;20084;-76
2023/09/07 12:12:40;;;;;;;5.63;2.75;;;27.70;95.10;;;;;;5004065;28;20052;-77
2023/09/07 12:15:07;;;;;;;9.93;3.45;;;27.80;95.10;;;;;;4992057;28;20121;-77
2023/09/07 12:17:33;;;;;;;3.53;1.95;;;28.00;94.90;;;;;;5003984;28;20112;-77
2023/09/07 12:20:00;;;;;;;6.30;2.67;;;27.80;94.20;;;;;;4992381;28;20040;-77
2023/09/07 12:22:26;;;;;;;6.90;2.60;;;27.70;94.00;;;;;;5002987;28;20061;-77
2023/09/07 12:24:52;;;;;;;4.22;2.67;;;27.70;93.90;;;;;;5002032;28;20033;-77
2023/09/07 12:27:18;;;;;;;5.50;2.38;;;27.60;94.00;;;;;;4993716;28;20037;-77
2023/09/07 12:29:44;;;;;;;4.18;2.45;;;27.80;93.70;;;;;;4995952;28;20108;-78
2023/09/07 12:32:10;;;;;;;4.68;2.40;;;27.90;94.70;;;;;;4997907;28;20500;-78
2023/09/07 12:34:36;;;;;;;5.78;2.10;;;28.00;93.50;;;;;;4994136;28;20468;-77
2023/09/07 12:37:04;;;;;;;5.10;2.53;;;28.00;94.00;;;;;;5003915;28;20033;-77
2023/09/07 12:39:30;;;;;;;5.85;2.58;;;28.00;93.40;;;;;;5002796;28;20049;-77
2023/09/07 12:41:55;;;;;;;7.15;3.05;;;28.10;93.90;;;;;;5008165;28;20068;-77